sensor_id;sensor_type;location;lat;lon;timestamp;noise_LAeq;noise_LA_min;noise_LA_max;noise_LA01;noise_LA95
70740;Laerm;58330;51.888;11.052;2023-03-01T00:01:22;30.48;29.17;32.77;;
70740;Laerm;58330;51.888;11.052;2023-03-01T00:03:49;30.38;28.94;31.64;;
70740;Laerm;58330;51.888;11.052;2023-03-01T00:06:15;30.55;29.08;33.44;;
70740;Laerm;58330;51.888;11.052;2023-03-01T00:08:43;30.59;29.11;34.48;;
70740;Laerm;58330;51.888;11.052;2023-03-01T00:11:10;30.48;29.00;35.59;;
70740;Laerm;58330;51.888;11.052;2023-03-01T00:13:38;30.57;29.10;34.07;;
70740;Laerm;58330;51.888;11.052;2023-03-01T00:16:05;31.56;29.09;38.36;;
70740;Laerm;58330;51.888;11.052;2023-03-01T00:18:32;30.77;29.26;37.54;;
70740;Laerm;58330;51.888;11.052;2023-03-01T00:20:59;30.85;29.16;39.19;;
70740;Laerm;58330;51.888;11.052;2023-03-01T00:23:25;30.54;29.14;33.23;;
70740;Laerm;58330;51.888;11.052;2023-03-01T00:25:53;31.37;29.23;37.33;;
70740;Laerm;58330;51.888;11.052;2023-03-01T00:28:20;31.30;29.31;39.42;;
70740;Laerm;58330;51.888;11.052;2023-03-01T00:30:47;30.47;28.95;31.90;;
70740;Laerm;58330;51.888;11.052;2023-03-01T00:33:14;30.44;29.15;31.72;;
70740;Laerm;58330;51.888;11.052;2023-03-01T00:35:40;31.34;28.83;38.71;;
70740;Laerm;58330;51.888;11.052;2023-03-01T00:38:06;31.21;29.09;40.42;;
70740;Laerm;58330;51.888;11.052;2023-03-01T00:40:34;30.41;28.96;33.02;;
70740;Laerm;58330;51.888;11.052;2023-03-01T00:43:02;30.41;29.16;31.92;;
70740;Laerm;58330;51.888;11.052;2023-03-01T00:45:29;31.17;29.27;40.38;;
70740;Laerm;58330;51.888;11.052;2023-03-01T00:47:56;30.42;28.99;31.78;;
70740;Laerm;58330;51.888;11.052;2023-03-01T00:50:23;31.63;29.28;40.65;;
70740;Laerm;58330;51.888;11.052;2023-03-01T00:52:51;30.57;29.24;33.62;;
70740;Laerm;58330;51.888;11.052;2023-03-01T00:55:18;30.50;29.01;31.86;;
70740;Laerm;58330;51.888;11.052;2023-03-01T00:57:44;30.42;29.13;32.05;;
70740;Laerm;58330;51.888;11.052;2023-03-01T01:00:12;30.39;29.12;31.64;;
70740;Laerm;58330;51.888;11.052;2023-03-01T01:02:39;30.71;28.98;35.43;;
70740;Laerm;58330;51.888;11.052;2023-03-01T01:05:05;31.03;29.29;36.36;;
70740;Laerm;58330;51.888;11.052;2023-03-01T01:07:32;30.61;29.15;33.76;;
70740;Laerm;58330;51.888;11.052;2023-03-01T01:09:58;30.92;29.17;37.32;;
70740;Laerm;58330;51.888;11.052;2023-03-01T01:12:24;30.42;29.06;31.71;;
70740;Laerm;58330;51.888;11.052;2023-03-01T01:14:51;30.83;29.30;36.45;;
70740;Laerm;58330;51.888;11.052;2023-03-01T01:17:18;30.72;29.16;34.61;;
70740;Laerm;58330;51.888;11.052;2023-03-01T01:19:45;31.35;29.35;38.00;;
70740;Laerm;58330;51.888;11.052;2023-03-01T01:22:11;30.52;29.17;31.78;;
70740;Laerm;58330;51.888;11.052;2023-03-01T01:24:38;30.53;29.04;33.18;;
70740;Laerm;58330;51.888;11.052;2023-03-01T01:27:05;30.53;29.10;32.48;;
70740;Laerm;58330;51.888;11.052;2023-03-01T01:29:32;30.96;29.19;37.21;;
70740;Laerm;58330;51.888;11.052;2023-03-01T01:31:58;30.42;29.19;31.65;;
70740;Laerm;58330;51.888;11.052;2023-03-01T01:34:26;30.67;29.05;39.72;;
70740;Laerm;58330;51.888;11.052;2023-03-01T01:36:53;30.51;29.17;31.70;;
70740;Laerm;58330;51.888;11.052;2023-03-01T01:39:19;30.71;28.90;33.42;;
70740;Laerm;58330;51.888;11.052;2023-03-01T01:41:46;32.09;29.21;39.91;;
70740;Laerm;58330;51.888;11.052;2023-03-01T01:44:14;31.43;29.25;37.88;;
70740;Laerm;58330;51.888;11.052;2023-03-01T01:46:41;31.03;29.06;36.21;;
70740;Laerm;58330;51.888;11.052;2023-03-01T01:49:12;31.25;29.43;34.37;;
70740;Laerm;58330;51.888;11.052;2023-03-01T01:51:45;31.22;29.37;39.01;;
70740;Laerm;58330;51.888;11.052;2023-03-01T01:54:14;30.67;29.39;32.81;;
70740;Laerm;58330;51.888;11.052;2023-03-01T01:56:44;30.66;28.97;32.31;;
70740;Laerm;58330;51.888;11.052;2023-03-01T01:59:12;31.12;29.40;41.95;;
70740;Laerm;58330;51.888;11.052;2023-03-01T02:01:40;31.14;29.35;39.36;;
70740;Laerm;58330;51.888;11.052;2023-03-01T02:04:06;30.89;29.38;33.34;;
70740;Laerm;58330;51.888;11.052;2023-03-01T02:06:33;30.79;29.41;32.30;;
70740;Laerm;58330;51.888;11.052;2023-03-01T02:09:04;30.96;29.53;33.43;;
70740;Laerm;58330;51.888;11.052;2023-03-01T02:11:32;31.25;29.57;38.06;;
70740;Laerm;58330;51.888;11.052;2023-03-01T02:13:59;30.89;29.28;33.21;;
70740;Laerm;58330;51.888;11.052;2023-03-01T02:16:26;30.81;29.32;40.63;;
70740;Laerm;58330;51.888;11.052;2023-03-01T02:18:52;31.02;29.48;33.43;;
70740;Laerm;58330;51.888;11.052;2023-03-01T02:24:06;30.86;29.41;32.48;;
70740;Laerm;58330;51.888;11.052;2023-03-01T02:26:39;31.59;29.56;39.06;;
70740;Laerm;58330;51.888;11.052;2023-03-01T02:29:08;31.39;29.61;40.36;;
70740;Laerm;58330;51.888;11.052;2023-03-01T02:31:34;31.07;29.35;34.41;;
70740;Laerm;58330;51.888;11.052;2023-03-01T02:34:11;30.76;29.51;31.97;;
70740;Laerm;58330;51.888;11.052;2023-03-01T02:36:39;30.97;29.22;33.87;;
70740;Laerm;58330;51.888;11.052;2023-03-01T02:39:07;31.86;29.77;38.69;;
70740;Laerm;58330;51.888;11.052;2023-03-01T02:41:40;32.64;29.81;39.20;;
70740;Laerm;58330;51.888;11.052;2023-03-01T02:44:09;31.53;29.61;38.24;;
70740;Laerm;58330;51.888;11.052;2023-03-01T02:46:41;31.08;29.31;34.81;;
70740;Laerm;58330;51.888;11.052;2023-03-01T02:49:16;31.92;29.71;38.38;;
70740;Laerm;58330;51.888;11.052;2023-03-01T02:51:45;31.16;29.60;34.75;;
70740;Laerm;58330;51.888;11.052;2023-03-01T02:54:17;34.65;29.58;47.45;;
70740;Laerm;58330;51.888;11.052;2023-03-01T02:56:47;31.13;29.47;33.68;;
70740;Laerm;58330;51.888;11.052;2023-03-01T02:59:16;31.55;29.69;36.77;;
70740;Laerm;58330;51.888;11.052;2023-03-01T03:01:44;32.09;29.61;37.22;;
70740;Laerm;58330;51.888;11.052;2023-03-01T03:04:13;31.39;29.77;35.54;;
70740;Laerm;58330;51.888;11.052;2023-03-01T03:06:41;31.62;29.93;36.60;;
70740;Laerm;58330;51.888;11.052;2023-03-01T03:09:08;32.07;29.49;38.62;;
70740;Laerm;58330;51.888;11.052;2023-03-01T03:11:34;32.59;29.83;44.32;;
70740;Laerm;58330;51.888;11.052;2023-03-01T03:14:02;31.41;29.50;36.39;;
70740;Laerm;58330;51.888;11.052;2023-03-01T03:16:30;33.40;29.68;44.11;;
70740;Laerm;58330;51.888;11.052;2023-03-01T03:18:56;31.64;29.25;36.63;;
70740;Laerm;58330;51.888;11.052;2023-03-01T03:21:30;31.92;29.84;37.51;;
70740;Laerm;58330;51.888;11.052;2023-03-01T03:23:56;31.80;29.51;37.58;;
70740;Laerm;58330;51.888;11.052;2023-03-01T03:26:22;31.89;29.71;38.55;;
70740;Laerm;58330;51.888;11.052;2023-03-01T03:28:49;31.55;29.51;36.69;;
70740;Laerm;58330;51.888;11.052;2023-03-01T03:31:15;32.14;29.72;41.47;;
70740;Laerm;58330;51.888;11.052;2023-03-01T03:33:43;32.23;29.87;40.05;;
70740;Laerm;58330;51.888;11.052;2023-03-01T03:36:09;32.28;29.84;41.22;;
70740;Laerm;58330;51.888;11.052;2023-03-01T03:38:38;31.95;29.88;37.37;;
70740;Laerm;58330;51.888;11.052;2023-03-01T03:41:05;32.15;29.80;37.62;;
70740;Laerm;58330;51.888;11.052;2023-03-01T03:43:33;31.83;29.68;37.64;;
70740;Laerm;58330;51.888;11.052;2023-03-01T03:46:00;33.08;30.15;38.74;;
70740;Laerm;58330;51.888;11.052;2023-03-01T03:48:30;31.37;29.73;35.34;;
70740;Laerm;58330;51.888;11.052;2023-03-01T03:50:58;32.00;29.82;37.81;;
70740;Laerm;58330;51.888;11.052;2023-03-01T03:53:25;33.08;29.92;38.63;;
70740;Laerm;58330;51.888;11.052;2023-03-01T03:55:52;31.93;29.64;37.88;;
70740;Laerm;58330;51.888;11.052;2023-03-01T03:58:19;31.03;29.75;37.88;;
70740;Laerm;58330;51.888;11.052;2023-03-01T04:00:47;31.77;29.89;35.18;;
70740;Laerm;58330;51.888;11.052;2023-03-01T04:03:14;32.19;29.92;37.37;;
70740;Laerm;58330;51.888;11.052;2023-03-01T04:05:41;31.92;30.02;34.80;;
70740;Laerm;58330;51.888;11.052;2023-03-01T04:08:09;34.93;30.00;45.09;;
70740;Laerm;58330;51.888;11.052;2023-03-01T04:10:36;33.15;30.67;39.98;;
70740;Laerm;58330;51.888;11.052;2023-03-01T04:13:03;33.36;30.01;43.00;;
70740;Laerm;58330;51.888;11.052;2023-03-01T04:15:30;32.28;30.13;37.89;;
70740;Laerm;58330;51.888;11.052;2023-03-01T04:17:57;32.28;30.16;36.44;;
70740;Laerm;58330;51.888;11.052;2023-03-01T04:20:25;35.41;30.28;46.73;;
70740;Laerm;58330;51.888;11.052;2023-03-01T04:22:56;33.98;30.34;44.27;;
70740;Laerm;58330;51.888;11.052;2023-03-01T04:25:24;36.67;30.09;48.54;;
70740;Laerm;58330;51.888;11.052;2023-03-01T04:27:51;35.04;30.27;47.24;;
70740;Laerm;58330;51.888;11.052;2023-03-01T04:30:17;33.56;30.39;52.82;;
70740;Laerm;58330;51.888;11.052;2023-03-01T04:32:44;35.21;30.40;44.65;;
70740;Laerm;58330;51.888;11.052;2023-03-01T04:35:10;37.69;30.61;48.04;;
70740;Laerm;58330;51.888;11.052;2023-03-01T04:37:36;35.85;30.54;47.64;;
70740;Laerm;58330;51.888;11.052;2023-03-01T04:40:03;35.20;30.85;45.90;;
70740;Laerm;58330;51.888;11.052;2023-03-01T04:42:39;33.20;30.54;36.88;;
70740;Laerm;58330;51.888;11.052;2023-03-01T04:45:06;33.81;30.28;37.74;;
70740;Laerm;58330;51.888;11.052;2023-03-01T04:47:38;33.92;30.51;44.50;;
70740;Laerm;58330;51.888;11.052;2023-03-01T04:50:04;33.62;30.46;37.57;;
70740;Laerm;58330;51.888;11.052;2023-03-01T04:52:31;33.18;30.38;36.32;;
70740;Laerm;58330;51.888;11.052;2023-03-01T04:54:57;36.16;30.95;45.45;;
70740;Laerm;58330;51.888;11.052;2023-03-01T04:57:24;37.36;30.67;47.59;;
70740;Laerm;58330;51.888;11.052;2023-03-01T04:59:51;34.31;30.66;50.57;;
70740;Laerm;58330;51.888;11.052;2023-03-01T05:02:18;33.83;30.79;38.26;;
70740;Laerm;58330;51.888;11.052;2023-03-01T05:04:44;35.56;30.49;46.97;;
70740;Laerm;58330;51.888;11.052;2023-03-01T05:07:11;34.21;30.61;42.24;;
70740;Laerm;58330;51.888;11.052;2023-03-01T05:09:38;33.26;30.63;37.33;;
70740;Laerm;58330;51.888;11.052;2023-03-01T05:12:04;36.75;30.85;49.68;;
70740;Laerm;58330;51.888;11.052;2023-03-01T05:14:30;35.17;30.90;42.81;;
70740;Laerm;58330;51.888;11.052;2023-03-01T05:16:58;34.76;31.74;40.26;;
70740;Laerm;58330;51.888;11.052;2023-03-01T05:19:28;35.11;31.00;45.12;;
70740;Laerm;58330;51.888;11.052;2023-03-01T05:21:55;35.22;31.17;44.01;;
70740;Laerm;58330;51.888;11.052;2023-03-01T05:24:29;34.04;31.20;38.35;;
70740;Laerm;58330;51.888;11.052;2023-03-01T05:26:55;34.09;31.14;38.68;;
70740;Laerm;58330;51.888;11.052;2023-03-01T05:29:22;35.69;31.57;45.67;;
70740;Laerm;58330;51.888;11.052;2023-03-01T05:31:51;33.99;31.42;39.90;;
70740;Laerm;58330;51.888;11.052;2023-03-01T05:34:19;34.87;31.55;39.40;;
70740;Laerm;58330;51.888;11.052;2023-03-01T05:36:48;39.43;31.44;51.64;;
70740;Laerm;58330;51.888;11.052;2023-03-01T05:39:16;37.22;32.15;51.39;;
70740;Laerm;58330;51.888;11.052;2023-03-01T05:41:42;37.49;31.89;45.82;;
70740;Laerm;58330;51.888;11.052;2023-03-01T05:44:08;38.25;32.42;48.56;;
70740;Laerm;58330;51.888;11.052;2023-03-01T05:46:37;36.71;31.81;46.82;;
70740;Laerm;58330;51.888;11.052;2023-03-01T05:49:03;36.83;32.82;47.75;;
70740;Laerm;58330;51.888;11.052;2023-03-01T05:51:31;38.57;31.92;53.81;;
70740;Laerm;58330;51.888;11.052;2023-03-01T05:53:59;39.02;32.07;49.75;;
70740;Laerm;58330;51.888;11.052;2023-03-01T05:56:25;37.36;32.65;49.75;;
70740;Laerm;58330;51.888;11.052;2023-03-01T05:58:51;38.98;31.64;48.08;;
70740;Laerm;58330;51.888;11.052;2023-03-01T06:01:18;37.09;33.11;47.87;;
70740;Laerm;58330;51.888;11.052;2023-03-01T06:03:44;41.69;31.99;62.72;;
70740;Laerm;58330;51.888;11.052;2023-03-01T06:06:10;36.20;31.62;46.13;;
70740;Laerm;58330;51.888;11.052;2023-03-01T06:08:38;38.29;32.66;47.20;;
70740;Laerm;58330;51.888;11.052;2023-03-01T06:11:04;36.82;32.65;47.18;;
70740;Laerm;58330;51.888;11.052;2023-03-01T06:13:32;37.40;32.61;46.98;;
70740;Laerm;58330;51.888;11.052;2023-03-01T06:15:58;41.43;33.16;54.05;;
70740;Laerm;58330;51.888;11.052;2023-03-01T06:18:24;38.46;33.06;52.89;;
70740;Laerm;58330;51.888;11.052;2023-03-01T06:20:54;40.38;32.99;53.48;;
70740;Laerm;58330;51.888;11.052;2023-03-01T06:23:20;40.12;33.53;48.69;;
70740;Laerm;58330;51.888;11.052;2023-03-01T06:25:49;40.15;33.14;49.93;;
70740;Laerm;58330;51.888;11.052;2023-03-01T06:28:15;38.72;33.16;49.25;;
70740;Laerm;58330;51.888;11.052;2023-03-01T06:30:42;39.52;32.35;48.48;;
70740;Laerm;58330;51.888;11.052;2023-03-01T06:33:08;39.09;33.37;52.36;;
70740;Laerm;58330;51.888;11.052;2023-03-01T06:35:35;39.34;33.11;47.62;;
70740;Laerm;58330;51.888;11.052;2023-03-01T06:38:03;37.78;33.92;47.21;;
70740;Laerm;58330;51.888;11.052;2023-03-01T06:40:30;39.23;33.69;53.60;;
70740;Laerm;58330;51.888;11.052;2023-03-01T06:43:00;37.71;32.93;46.77;;
70740;Laerm;58330;51.888;11.052;2023-03-01T06:45:30;36.22;32.41;43.07;;
70740;Laerm;58330;51.888;11.052;2023-03-01T06:48:03;37.85;32.48;48.51;;
70740;Laerm;58330;51.888;11.052;2023-03-01T06:50:33;38.43;33.07;51.17;;
70740;Laerm;58330;51.888;11.052;2023-03-01T06:53:00;37.69;32.88;49.21;;
70740;Laerm;58330;51.888;11.052;2023-03-01T06:55:26;36.12;32.29;43.62;;
70740;Laerm;58330;51.888;11.052;2023-03-01T06:57:54;38.91;32.00;46.42;;
70740;Laerm;58330;51.888;11.052;2023-03-01T07:00:23;38.56;32.92;46.36;;
70740;Laerm;58330;51.888;11.052;2023-03-01T07:02:51;36.47;31.62;46.28;;
70740;Laerm;58330;51.888;11.052;2023-03-01T07:05:18;37.94;31.82;49.06;;
70740;Laerm;58330;51.888;11.052;2023-03-01T07:07:44;35.35;31.71;46.15;;
70740;Laerm;58330;51.888;11.052;2023-03-01T07:10:11;40.37;31.84;54.39;;
70740;Laerm;58330;51.888;11.052;2023-03-01T07:12:38;37.92;31.96;51.30;;
70740;Laerm;58330;51.888;11.052;2023-03-01T07:15:07;43.33;32.38;57.03;;
70740;Laerm;58330;51.888;11.052;2023-03-01T07:17:36;38.40;32.34;46.98;;
70740;Laerm;58330;51.888;11.052;2023-03-01T07:20:02;35.85;31.45;43.25;;
70740;Laerm;58330;51.888;11.052;2023-03-01T07:22:29;36.60;30.69;45.28;;
70740;Laerm;58330;51.888;11.052;2023-03-01T07:24:56;37.54;31.70;46.36;;
70740;Laerm;58330;51.888;11.052;2023-03-01T07:27:23;37.42;31.56;48.53;;
70740;Laerm;58330;51.888;11.052;2023-03-01T07:29:49;35.93;30.17;47.18;;
70740;Laerm;58330;51.888;11.052;2023-03-01T07:32:16;40.70;31.32;52.86;;
70740;Laerm;58330;51.888;11.052;2023-03-01T07:34:44;39.89;30.77;55.58;;
70740;Laerm;58330;51.888;11.052;2023-03-01T07:37:10;43.44;31.55;57.67;;
70740;Laerm;58330;51.888;11.052;2023-03-01T07:39:37;37.53;30.99;49.08;;
70740;Laerm;58330;51.888;11.052;2023-03-01T07:42:03;39.11;30.72;49.36;;
70740;Laerm;58330;51.888;11.052;2023-03-01T07:44:30;38.52;31.82;50.68;;
70740;Laerm;58330;51.888;11.052;2023-03-01T07:46:59;38.55;31.77;50.25;;
70740;Laerm;58330;51.888;11.052;2023-03-01T07:49:26;36.58;30.51;47.89;;
70740;Laerm;58330;51.888;11.052;2023-03-01T07:51:54;35.01;30.61;43.44;;
70740;Laerm;58330;51.888;11.052;2023-03-01T07:54:21;36.62;30.92;46.89;;
70740;Laerm;58330;51.888;11.052;2023-03-01T07:56:47;36.46;30.66;48.87;;
70740;Laerm;58330;51.888;11.052;2023-03-01T07:59:14;37.58;30.39;51.25;;
70740;Laerm;58330;51.888;11.052;2023-03-01T08:01:40;34.69;30.16;49.19;;
70740;Laerm;58330;51.888;11.052;2023-03-01T08:04:07;46.00;31.91;65.35;;
70740;Laerm;58330;51.888;11.052;2023-03-01T08:06:34;36.90;31.10;49.09;;
70740;Laerm;58330;51.888;11.052;2023-03-01T08:09:03;37.06;31.11;50.76;;
70740;Laerm;58330;51.888;11.052;2023-03-01T08:11:30;35.62;30.37;46.66;;
70740;Laerm;58330;51.888;11.052;2023-03-01T08:13:57;36.31;31.66;46.13;;
70740;Laerm;58330;51.888;11.052;2023-03-01T08:16:23;36.62;31.71;51.05;;
70740;Laerm;58330;51.888;11.052;2023-03-01T08:18:50;37.29;31.69;47.49;;
70740;Laerm;58330;51.888;11.052;2023-03-01T08:21:19;42.85;31.30;60.54;;
70740;Laerm;58330;51.888;11.052;2023-03-01T08:23:45;39.01;31.48;50.50;;
70740;Laerm;58330;51.888;11.052;2023-03-01T08:26:14;41.24;31.99;57.48;;
70740;Laerm;58330;51.888;11.052;2023-03-01T08:28:41;37.31;30.94;45.18;;
70740;Laerm;58330;51.888;11.052;2023-03-01T08:31:14;36.77;30.92;47.12;;
70740;Laerm;58330;51.888;11.052;2023-03-01T08:33:41;38.28;31.62;49.57;;
70740;Laerm;58330;51.888;11.052;2023-03-01T08:36:15;39.34;32.58;51.43;;
70740;Laerm;58330;51.888;11.052;2023-03-01T08:38:42;37.89;32.25;56.33;;
70740;Laerm;58330;51.888;11.052;2023-03-01T08:41:08;45.48;33.72;59.32;;
70740;Laerm;58330;51.888;11.052;2023-03-01T08:43:39;36.98;32.00;52.41;;
70740;Laerm;58330;51.888;11.052;2023-03-01T08:46:05;37.47;31.18;46.43;;
70740;Laerm;58330;51.888;11.052;2023-03-01T08:48:32;35.92;31.44;49.42;;
70740;Laerm;58330;51.888;11.052;2023-03-01T08:51:06;38.00;31.59;50.93;;
70740;Laerm;58330;51.888;11.052;2023-03-01T08:53:32;36.92;32.65;46.79;;
70740;Laerm;58330;51.888;11.052;2023-03-01T08:55:59;37.54;31.45;46.84;;
70740;Laerm;58330;51.888;11.052;2023-03-01T08:58:26;37.10;31.66;48.84;;
70740;Laerm;58330;51.888;11.052;2023-03-01T09:00:53;37.12;31.01;46.86;;
70740;Laerm;58330;51.888;11.052;2023-03-01T09:03:21;36.70;30.57;54.35;;
70740;Laerm;58330;51.888;11.052;2023-03-01T09:05:49;43.31;31.21;56.85;;
70740;Laerm;58330;51.888;11.052;2023-03-01T09:08:16;40.32;32.24;48.80;;
70740;Laerm;58330;51.888;11.052;2023-03-01T09:10:42;39.30;31.43;55.25;;
70740;Laerm;58330;51.888;11.052;2023-03-01T09:13:09;39.85;32.08;57.70;;
70740;Laerm;58330;51.888;11.052;2023-03-01T09:15:36;41.11;32.34;55.12;;
70740;Laerm;58330;51.888;11.052;2023-03-01T09:18:04;41.07;31.27;54.10;;
70740;Laerm;58330;51.888;11.052;2023-03-01T09:20:31;40.03;31.09;51.49;;
70740;Laerm;58330;51.888;11.052;2023-03-01T09:22:57;39.39;30.35;56.53;;
70740;Laerm;58330;51.888;11.052;2023-03-01T09:25:24;38.59;30.87;55.63;;
70740;Laerm;58330;51.888;11.052;2023-03-01T09:27:50;38.88;31.22;52.67;;
70740;Laerm;58330;51.888;11.052;2023-03-01T09:30:17;37.99;30.97;50.46;;
70740;Laerm;58330;51.888;11.052;2023-03-01T09:32:44;39.70;32.28;51.93;;
70740;Laerm;58330;51.888;11.052;2023-03-01T09:35:12;34.68;30.09;44.54;;
70740;Laerm;58330;51.888;11.052;2023-03-01T09:37:39;35.06;31.21;42.03;;
70740;Laerm;58330;51.888;11.052;2023-03-01T09:40:11;35.47;30.04;46.22;;
70740;Laerm;58330;51.888;11.052;2023-03-01T09:42:45;34.63;29.77;47.80;;
70740;Laerm;58330;51.888;11.052;2023-03-01T09:45:15;35.17;29.71;44.84;;
70740;Laerm;58330;51.888;11.052;2023-03-01T09:47:45;35.99;29.61;47.86;;
70740;Laerm;58330;51.888;11.052;2023-03-01T09:50:16;34.98;30.05;43.16;;
70740;Laerm;58330;51.888;11.052;2023-03-01T09:52:43;34.22;28.26;42.59;;
70740;Laerm;58330;51.888;11.052;2023-03-01T09:55:12;37.13;29.15;49.07;;
70740;Laerm;58330;51.888;11.052;2023-03-01T09:57:41;37.85;30.18;51.78;;
70740;Laerm;58330;51.888;11.052;2023-03-01T10:00:15;36.49;29.87;45.11;;
70740;Laerm;58330;51.888;11.052;2023-03-01T10:02:46;35.92;28.88;48.95;;
70740;Laerm;58330;51.888;11.052;2023-03-01T10:05:17;35.47;28.38;45.75;;
70740;Laerm;58330;51.888;11.052;2023-03-01T10:07:45;34.91;28.74;45.60;;
70740;Laerm;58330;51.888;11.052;2023-03-01T10:10:16;34.03;27.99;42.65;;
70740;Laerm;58330;51.888;11.052;2023-03-01T10:12:49;38.63;29.23;52.96;;
70740;Laerm;58330;51.888;11.052;2023-03-01T10:15:17;35.69;29.92;44.91;;
70740;Laerm;58330;51.888;11.052;2023-03-01T10:17:44;37.31;28.96;51.70;;
70740;Laerm;58330;51.888;11.052;2023-03-01T10:20:18;33.09;27.28;41.33;;
70740;Laerm;58330;51.888;11.052;2023-03-01T10:22:45;32.32;28.43;40.89;;
70740;Laerm;58330;51.888;11.052;2023-03-01T10:25:15;34.86;29.17;43.79;;
70740;Laerm;58330;51.888;11.052;2023-03-01T10:27:45;32.74;28.85;41.16;;
70740;Laerm;58330;51.888;11.052;2023-03-01T10:30:16;33.81;28.88;42.37;;
70740;Laerm;58330;51.888;11.052;2023-03-01T10:32:48;33.59;28.29;48.66;;
70740;Laerm;58330;51.888;11.052;2023-03-01T10:35:19;33.86;29.06;42.40;;
70740;Laerm;58330;51.888;11.052;2023-03-01T10:37:56;37.45;30.70;47.47;;
70740;Laerm;58330;51.888;11.052;2023-03-01T10:40:23;36.35;30.12;47.54;;
70740;Laerm;58330;51.888;11.052;2023-03-01T10:42:49;35.66;28.68;47.97;;
70740;Laerm;58330;51.888;11.052;2023-03-01T10:45:19;35.09;28.68;46.35;;
70740;Laerm;58330;51.888;11.052;2023-03-01T10:48:02;35.49;29.32;45.67;;
70740;Laerm;58330;51.888;11.052;2023-03-01T10:50:32;36.53;28.30;47.41;;
70740;Laerm;58330;51.888;11.052;2023-03-01T10:52:59;38.57;28.74;52.76;;
70740;Laerm;58330;51.888;11.052;2023-03-01T10:55:27;35.38;29.47;45.39;;
70740;Laerm;58330;51.888;11.052;2023-03-01T11:00:45;34.86;28.74;46.42;;
70740;Laerm;58330;51.888;11.052;2023-03-01T11:03:12;34.77;27.97;47.23;;
70740;Laerm;58330;51.888;11.052;2023-03-01T11:05:54;32.43;29.07;38.28;;
70740;Laerm;58330;51.888;11.052;2023-03-01T11:08:31;36.75;29.48;47.54;;
70740;Laerm;58330;51.888;11.052;2023-03-01T11:11:03;36.66;29.75;48.04;;
70740;Laerm;58330;51.888;11.052;2023-03-01T11:13:30;36.05;30.42;45.86;;
70740;Laerm;58330;51.888;11.052;2023-03-01T11:16:00;35.09;30.27;45.62;;
70740;Laerm;58330;51.888;11.052;2023-03-01T11:18:30;34.33;30.77;41.62;;
70740;Laerm;58330;51.888;11.052;2023-03-01T11:20:58;35.96;31.18;48.70;;
70740;Laerm;58330;51.888;11.052;2023-03-01T11:23:25;36.15;31.59;44.95;;
70740;Laerm;58330;51.888;11.052;2023-03-01T11:25:54;34.65;30.21;48.48;;
70740;Laerm;58330;51.888;11.052;2023-03-01T11:28:21;35.21;29.94;46.60;;
70740;Laerm;58330;51.888;11.052;2023-03-01T11:30:50;38.86;30.38;51.93;;
70740;Laerm;58330;51.888;11.052;2023-03-01T11:33:20;37.96;31.73;48.53;;
70740;Laerm;58330;51.888;11.052;2023-03-01T11:35:53;37.20;31.17;47.27;;
70740;Laerm;58330;51.888;11.052;2023-03-01T11:38:23;36.52;31.30;47.75;;
70740;Laerm;58330;51.888;11.052;2023-03-01T11:40:53;33.72;31.17;37.77;;
70740;Laerm;58330;51.888;11.052;2023-03-01T11:43:26;36.44;31.71;52.40;;
70740;Laerm;58330;51.888;11.052;2023-03-01T11:46:02;37.62;31.42;46.59;;
70740;Laerm;58330;51.888;11.052;2023-03-01T11:48:38;37.05;31.22;46.40;;
70740;Laerm;58330;51.888;11.052;2023-03-01T11:51:12;40.31;31.20;53.99;;
70740;Laerm;58330;51.888;11.052;2023-03-01T11:53:53;38.39;31.62;50.12;;
70740;Laerm;58330;51.888;11.052;2023-03-01T11:56:23;35.12;31.50;51.07;;
70740;Laerm;58330;51.888;11.052;2023-03-01T11:59:02;36.41;31.44;50.07;;
70740;Laerm;58330;51.888;11.052;2023-03-01T12:01:37;35.00;30.99;44.14;;
70740;Laerm;58330;51.888;11.052;2023-03-01T12:04:14;37.11;31.64;45.10;;
70740;Laerm;58330;51.888;11.052;2023-03-01T12:06:50;36.06;31.20;47.71;;
70740;Laerm;58330;51.888;11.052;2023-03-01T12:09:33;35.62;31.44;50.56;;
70740;Laerm;58330;51.888;11.052;2023-03-01T12:12:07;36.94;31.22;59.79;;
70740;Laerm;58330;51.888;11.052;2023-03-01T12:14:50;39.75;31.14;66.79;;
70740;Laerm;58330;51.888;11.052;2023-03-01T12:17:24;37.61;31.60;48.60;;
70740;Laerm;58330;51.888;11.052;2023-03-01T12:20:05;36.96;30.88;47.33;;
70740;Laerm;58330;51.888;11.052;2023-03-01T12:22:42;38.35;32.66;46.58;;
70740;Laerm;58330;51.888;11.052;2023-03-01T12:25:18;36.59;32.35;51.80;;
70740;Laerm;58330;51.888;11.052;2023-03-01T12:27:53;37.92;31.13;50.06;;
70740;Laerm;58330;51.888;11.052;2023-03-01T12:30:24;41.53;31.56;60.42;;
70740;Laerm;58330;51.888;11.052;2023-03-01T12:32:58;36.69;32.04;51.35;;
70740;Laerm;58330;51.888;11.052;2023-03-01T12:35:35;36.04;31.52;52.56;;
70740;Laerm;58330;51.888;11.052;2023-03-01T12:38:08;37.32;30.84;47.08;;
70740;Laerm;58330;51.888;11.052;2023-03-01T12:40:53;36.53;31.41;50.50;;
70740;Laerm;58330;51.888;11.052;2023-03-01T12:43:28;37.04;30.74;48.56;;
70740;Laerm;58330;51.888;11.052;2023-03-01T12:46:06;38.96;30.96;54.52;;
70740;Laerm;58330;51.888;11.052;2023-03-01T12:48:39;37.14;30.09;51.54;;
70740;Laerm;58330;51.888;11.052;2023-03-01T12:51:07;36.37;30.79;49.34;;
70740;Laerm;58330;51.888;11.052;2023-03-01T12:53:36;36.49;30.47;47.82;;
70740;Laerm;58330;51.888;11.052;2023-03-01T12:56:06;36.77;30.48;49.11;;
70740;Laerm;58330;51.888;11.052;2023-03-01T12:58:38;42.46;30.89;58.45;;
70740;Laerm;58330;51.888;11.052;2023-03-01T13:01:10;33.95;29.42;44.27;;
70740;Laerm;58330;51.888;11.052;2023-03-01T13:03:51;38.21;30.26;50.74;;
70740;Laerm;58330;51.888;11.052;2023-03-01T13:06:24;35.15;30.38;46.43;;
70740;Laerm;58330;51.888;11.052;2023-03-01T13:08:56;34.10;29.82;43.54;;
70740;Laerm;58330;51.888;11.052;2023-03-01T13:11:28;35.39;29.71;43.31;;
70740;Laerm;58330;51.888;11.052;2023-03-01T13:14:08;37.23;31.11;48.75;;
70740;Laerm;58330;51.888;11.052;2023-03-01T13:16:54;36.07;30.48;45.58;;
70740;Laerm;58330;51.888;11.052;2023-03-01T13:19:21;35.20;29.86;49.93;;
70740;Laerm;58330;51.888;11.052;2023-03-01T13:21:49;36.59;30.06;47.03;;
70740;Laerm;58330;51.888;11.052;2023-03-01T13:24:29;35.38;29.35;50.12;;
70740;Laerm;58330;51.888;11.052;2023-03-01T13:29:47;34.84;30.00;42.02;;
70740;Laerm;58330;51.888;11.052;2023-03-01T13:32:21;34.62;30.50;46.46;;
70740;Laerm;58330;51.888;11.052;2023-03-01T13:34:52;34.35;29.76;43.59;;
70740;Laerm;58330;51.888;11.052;2023-03-01T13:37:21;37.55;31.40;49.09;;
70740;Laerm;58330;51.888;11.052;2023-03-01T13:39:48;35.29;29.96;50.79;;
70740;Laerm;58330;51.888;11.052;2023-03-01T13:42:32;34.25;29.57;47.48;;
70740;Laerm;58330;51.888;11.052;2023-03-01T13:45:05;36.39;30.72;47.57;;
70740;Laerm;58330;51.888;11.052;2023-03-01T13:47:32;34.38;29.62;42.10;;
70740;Laerm;58330;51.888;11.052;2023-03-01T13:50:00;36.80;30.95;49.62;;